createdAt,value
2022-10-07T00:01:14.448Z,6.70
2022-10-07T00:03:41.918Z,6.27
2022-10-07T00:06:12.401Z,7.03
2022-10-07T00:08:40.925Z,6.47
2022-10-07T00:11:09.731Z,6.87
2022-10-07T00:13:38.565Z,6.10
2022-10-07T00:16:07.073Z,6.40
2022-10-07T00:18:34.826Z,6.27
2022-10-07T00:21:07.265Z,6.23
2022-10-07T00:23:34.063Z,6.03
2022-10-07T00:26:01.758Z,6.13
2022-10-07T00:28:28.713Z,6.20
2022-10-07T00:30:59.097Z,5.50
2022-10-07T00:33:26.118Z,5.73
2022-10-07T00:35:52.882Z,4.67
2022-10-07T00:38:20.469Z,5.70
2022-10-07T00:40:47.078Z,6.07
2022-10-07T00:43:22.498Z,5.27
2022-10-07T00:45:50.225Z,5.53
2022-10-07T00:48:22.982Z,5.53
2022-10-07T00:50:51.985Z,5.77
2022-10-07T00:53:20.445Z,5.57
2022-10-07T00:55:46.994Z,6.13
2022-10-07T00:58:13.991Z,6.07
2022-10-07T01:00:40.792Z,5.50
2022-10-07T01:03:08.619Z,5.73
2022-10-07T01:05:35.197Z,5.67
2022-10-07T01:08:02.083Z,5.37
2022-10-07T01:10:35.339Z,5.83
2022-10-07T01:13:10.015Z,5.77
2022-10-07T01:15:41.088Z,5.90
2022-10-07T01:18:15.471Z,6.10
2022-10-07T01:20:49.961Z,6.23
2022-10-07T01:23:52.286Z,6.10
2022-10-07T01:26:49.493Z,5.87
2022-10-07T01:29:20.598Z,5.50
2022-10-07T01:31:53.473Z,5.57
2022-10-07T01:34:23.147Z,5.73
2022-10-07T01:36:53.433Z,6.00
2022-10-07T01:39:24.145Z,6.13
2022-10-07T01:41:52.462Z,5.67
2022-10-07T01:44:19.077Z,6.23
2022-10-07T01:46:47.034Z,5.50
2022-10-07T01:49:13.619Z,5.50
2022-10-07T01:51:41.920Z,5.33
2022-10-07T01:54:23.857Z,5.63
2022-10-07T01:57:08.325Z,6.07
2022-10-07T01:59:57.833Z,6.93
2022-10-07T02:02:34.970Z,6.30
2022-10-07T02:05:10.390Z,6.37
2022-10-07T02:07:50.648Z,5.83
2022-10-07T02:10:24.030Z,5.70
2022-10-07T02:12:57.968Z,6.33
2022-10-07T02:15:30.389Z,6.40
2022-10-07T02:18:01.903Z,6.47
2022-10-07T02:20:31.719Z,6.43
2022-10-07T02:23:01.778Z,6.27
2022-10-07T02:25:34.447Z,5.87
2022-10-07T02:28:04.753Z,6.00
2022-10-07T02:30:33.463Z,6.23
2022-10-07T02:33:03.267Z,5.73
2022-10-07T02:35:36.870Z,6.77
2022-10-07T02:38:09.339Z,5.57
2022-10-07T02:40:40.473Z,5.53
2022-10-07T02:43:16.471Z,5.90
2022-10-07T02:45:49.695Z,6.17
2022-10-07T02:48:21.099Z,5.70
2022-10-07T02:50:51.051Z,5.70
2022-10-07T02:53:19.986Z,5.17
2022-10-07T02:55:49.899Z,5.63
2022-10-07T02:58:17.961Z,6.13
2022-10-07T03:00:52.147Z,6.10
2022-10-07T03:03:19.237Z,6.07
2022-10-07T03:05:47.582Z,6.70
2022-10-07T03:08:14.337Z,6.03
2022-10-07T03:10:41.669Z,6.10
2022-10-07T03:13:08.294Z,6.63
2022-10-07T03:15:41.802Z,6.20
2022-10-07T03:18:25.321Z,5.97
2022-10-07T03:20:54.572Z,5.83
2022-10-07T03:23:21.679Z,6.50
2022-10-07T03:25:52.240Z,6.40
2022-10-07T03:28:19.898Z,6.10
2022-10-07T03:30:47.365Z,6.07
2022-10-07T03:33:13.994Z,5.93
2022-10-07T03:35:40.695Z,5.97
2022-10-07T03:38:07.837Z,6.40
2022-10-07T03:40:34.438Z,6.53
2022-10-07T03:43:01.772Z,5.90
2022-10-07T03:45:29.695Z,6.57
2022-10-07T03:47:56.935Z,5.63
2022-10-07T03:50:23.522Z,6.03
2022-10-07T03:52:50.100Z,5.63
2022-10-07T03:55:16.757Z,6.47
2022-10-07T03:57:58.411Z,6.67
2022-10-07T04:00:26.650Z,6.77
2022-10-07T04:02:53.367Z,6.77
2022-10-07T04:05:22.065Z,6.47
2022-10-07T04:07:49.970Z,6.53
2022-10-07T04:10:18.314Z,6.93
2022-10-07T04:12:45.321Z,6.47
2022-10-07T04:15:13.006Z,6.20
2022-10-07T04:17:39.623Z,6.27
2022-10-07T04:20:07.423Z,6.93
2022-10-07T04:22:34.726Z,6.17
2022-10-07T04:25:19.317Z,6.97
2022-10-07T04:27:52.230Z,6.17
2022-10-07T04:30:19.405Z,6.40
2022-10-07T04:32:46.010Z,7.10
2022-10-07T04:35:12.534Z,6.83
2022-10-07T04:37:40.679Z,7.17
2022-10-07T04:40:08.806Z,7.53
2022-10-07T04:42:53.727Z,8.40
2022-10-07T04:45:20.340Z,6.63
2022-10-07T04:47:47.214Z,7.83
2022-10-07T04:50:14.188Z,7.53
2022-10-07T04:52:41.790Z,6.77
2022-10-07T04:55:10.246Z,6.80
2022-10-07T04:57:36.769Z,6.83
2022-10-07T05:00:04.135Z,6.47
2022-10-07T05:02:31.060Z,7.07
2022-10-07T05:04:57.698Z,7.30
2022-10-07T05:07:25.138Z,6.37
2022-10-07T05:09:52.678Z,6.77
2022-10-07T05:12:19.427Z,7.17
2022-10-07T05:14:46.567Z,7.23
2022-10-07T05:17:14.019Z,6.67
2022-10-07T05:19:40.628Z,6.80
2022-10-07T05:22:07.403Z,6.77
2022-10-07T05:24:33.944Z,6.20
2022-10-07T05:27:01.177Z,6.73
2022-10-07T05:29:27.759Z,6.60
2022-10-07T05:31:54.392Z,7.17
2022-10-07T05:34:21.037Z,6.37
2022-10-07T05:36:47.649Z,6.50
2022-10-07T05:39:14.211Z,6.67
2022-10-07T05:41:45.610Z,7.00
2022-10-07T05:44:13.354Z,6.87
2022-10-07T05:46:39.892Z,6.87
2022-10-07T05:49:06.592Z,6.87
2022-10-07T05:51:33.148Z,6.30
2022-10-07T05:53:59.790Z,6.50
2022-10-07T05:56:26.348Z,7.73
2022-10-07T05:58:53.193Z,6.43
2022-10-07T06:01:22.565Z,7.53
2022-10-07T06:03:51.111Z,6.87
2022-10-07T06:06:18.318Z,8.77
2022-10-07T06:08:44.940Z,8.53
2022-10-07T06:11:31.425Z,7.97
2022-10-07T06:13:57.999Z,8.07
2022-10-07T06:16:25.833Z,8.27
2022-10-07T06:18:53.615Z,9.63
2022-10-07T06:21:22.995Z,8.87
2022-10-07T06:23:51.023Z,10.43
2022-10-07T06:26:18.051Z,10.13
2022-10-07T06:28:44.829Z,9.07
2022-10-07T06:31:13.387Z,9.67
2022-10-07T06:33:40.901Z,9.20
2022-10-07T06:36:10.700Z,10.60
2022-10-07T06:38:37.657Z,9.00
2022-10-07T06:41:06.346Z,8.73
2022-10-07T06:43:34.183Z,9.60
2022-10-07T06:46:03.013Z,9.40
2022-10-07T06:48:31.306Z,9.43
2022-10-07T06:51:02.356Z,9.17
2022-10-07T06:53:29.255Z,8.97
2022-10-07T06:55:57.127Z,9.97
2022-10-07T06:58:25.223Z,10.10
2022-10-07T07:00:52.220Z,11.03
2022-10-07T07:03:18.850Z,9.63
2022-10-07T07:05:47.015Z,9.17
2022-10-07T07:08:16.522Z,8.53
2022-10-07T07:10:43.801Z,7.97
2022-10-07T07:13:11.493Z,8.37
2022-10-07T07:15:39.252Z,7.87
2022-10-07T07:18:07.895Z,7.10
2022-10-07T07:20:36.564Z,7.67
2022-10-07T07:23:04.079Z,7.60
2022-10-07T07:25:35.000Z,7.83
2022-10-07T07:28:01.776Z,7.93
2022-10-07T07:30:28.546Z,8.27
2022-10-07T07:32:55.444Z,8.33
2022-10-07T07:35:22.263Z,7.83
2022-10-07T07:37:49.705Z,8.20
2022-10-07T07:40:16.565Z,8.23
2022-10-07T07:42:45.513Z,8.77
2022-10-07T07:45:12.592Z,7.40
2022-10-07T07:47:39.172Z,7.70
2022-10-07T07:50:07.661Z,7.93
2022-10-07T07:52:34.823Z,8.33
2022-10-07T07:55:02.589Z,7.57
2022-10-07T07:57:30.431Z,7.63
2022-10-07T07:59:59.315Z,7.53
2022-10-07T08:02:26.762Z,8.00
2022-10-07T08:04:53.640Z,7.23
2022-10-07T08:07:20.276Z,7.63
2022-10-07T08:09:46.891Z,7.47
2022-10-07T08:12:14.194Z,7.07
2022-10-07T08:14:45.370Z,7.03
2022-10-07T08:17:12.683Z,7.13
2022-10-07T08:19:39.303Z,8.13
2022-10-07T08:22:06.430Z,6.97
2022-10-07T08:24:32.999Z,6.73
2022-10-07T08:26:59.811Z,6.10
2022-10-07T08:29:26.610Z,6.13
2022-10-07T08:31:57.389Z,6.77
2022-10-07T08:34:24.893Z,6.10
2022-10-07T08:36:51.554Z,6.20
2022-10-07T08:39:18.126Z,6.07
2022-10-07T08:41:54.226Z,6.33
2022-10-07T08:44:27.903Z,5.90
2022-10-07T08:47:05.951Z,6.23
2022-10-07T08:49:39.202Z,6.80
2022-10-07T08:52:29.339Z,6.23
2022-10-07T08:54:55.969Z,6.53
2022-10-07T08:57:38.174Z,6.40
2022-10-07T09:00:08.440Z,5.70
2022-10-07T09:02:44.043Z,5.50
2022-10-07T09:05:19.486Z,5.70
2022-10-07T09:07:51.487Z,4.70
2022-10-07T09:10:33.026Z,5.83
2022-10-07T09:13:02.882Z,5.27
2022-10-07T09:15:37.701Z,5.37
2022-10-07T09:18:12.478Z,5.57
2022-10-07T09:20:43.538Z,5.13
2022-10-07T09:23:14.668Z,5.40
2022-10-07T09:25:41.546Z,5.80
2022-10-07T09:28:12.655Z,4.23
2022-10-07T09:30:41.507Z,4.40
2022-10-07T09:33:17.804Z,4.70
2022-10-07T09:35:57.360Z,4.20
2022-10-07T09:38:33.405Z,4.10
2022-10-07T09:41:19.184Z,4.00
2022-10-07T09:44:03.338Z,2.77
2022-10-07T09:46:47.001Z,3.23
2022-10-07T09:49:41.455Z,2.90
2022-10-07T09:52:16.933Z,2.97
2022-10-07T09:54:45.093Z,2.87
2022-10-07T09:57:25.759Z,3.67
2022-10-07T10:00:14.105Z,3.37
2022-10-07T10:02:45.127Z,3.80
2022-10-07T10:05:24.255Z,3.43
2022-10-07T10:07:58.832Z,3.10
2022-10-07T10:10:27.859Z,3.07
2022-10-07T10:12:56.553Z,2.97
2022-10-07T10:15:37.518Z,3.90
2022-10-07T10:18:28.628Z,3.03
2022-10-07T10:20:55.486Z,3.43
2022-10-07T10:23:30.828Z,3.30
2022-10-07T10:26:32.694Z,4.30
2022-10-07T10:29:13.078Z,3.47
2022-10-07T10:32:02.860Z,3.07
2022-10-07T10:34:37.772Z,4.13
2022-10-07T10:37:14.521Z,3.50
2022-10-07T10:39:56.687Z,3.10
2022-10-07T10:42:31.577Z,3.30
2022-10-07T10:45:10.748Z,3.80
2022-10-07T10:47:55.795Z,3.10
2022-10-07T10:50:33.023Z,2.97
2022-10-07T10:53:15.587Z,3.43
2022-10-07T10:56:10.416Z,3.00
2022-10-07T10:58:52.542Z,2.70
2022-10-07T11:01:27.173Z,2.97
2022-10-07T11:04:19.536Z,3.00
2022-10-07T11:06:49.521Z,2.50
2022-10-07T11:09:19.509Z,2.70
2022-10-07T11:11:46.720Z,2.30
2022-10-07T11:14:16.572Z,2.17
2022-10-07T11:16:47.765Z,2.00
2022-10-07T11:19:20.349Z,3.87
2022-10-07T11:21:49.419Z,2.37
2022-10-07T11:24:22.077Z,3.13
2022-10-07T11:26:56.659Z,2.43
2022-10-07T11:29:30.805Z,2.60
2022-10-07T11:32:05.871Z,3.50
2022-10-07T11:34:41.559Z,2.53
2022-10-07T11:37:11.566Z,2.93
2022-10-07T11:39:39.038Z,2.33
2022-10-07T11:42:13.117Z,2.90
2022-10-07T11:44:45.135Z,2.60
2022-10-07T11:47:15.868Z,2.30
2022-10-07T11:49:55.035Z,2.17
2022-10-07T11:52:26.007Z,2.27
2022-10-07T11:54:58.698Z,2.40
2022-10-07T11:57:30.621Z,2.67
2022-10-07T11:59:59.731Z,3.37
2022-10-07T12:02:47.599Z,2.27
2022-10-07T12:06:05.501Z,2.90
2022-10-07T12:08:34.710Z,2.67
2022-10-07T12:11:46.454Z,2.80
2022-10-07T12:14:35.014Z,2.40
2022-10-07T12:17:27.440Z,2.90
2022-10-07T12:20:33.755Z,2.30
2022-10-07T12:23:48.145Z,2.70
2022-10-07T12:26:51.261Z,2.70
2022-10-07T12:29:34.883Z,2.83
2022-10-07T12:32:02.107Z,2.37
2022-10-07T12:34:38.109Z,2.70
2022-10-07T12:37:42.658Z,2.70
2022-10-07T12:40:16.215Z,2.27
2022-10-07T12:42:50.417Z,2.47
2022-10-07T12:45:20.266Z,2.58
2022-10-07T12:47:49.476Z,2.33
2022-10-07T12:50:19.375Z,2.00
2022-10-07T12:52:52.190Z,2.70
2022-10-07T12:55:25.840Z,2.58
2022-10-07T12:58:17.120Z,2.17
2022-10-07T13:01:00.797Z,2.17
2022-10-07T13:04:06.120Z,2.33
2022-10-07T13:07:14.047Z,2.00
2022-10-07T13:10:16.938Z,2.20
2022-10-07T13:12:50.556Z,2.38
2022-10-07T13:15:32.262Z,2.00
2022-10-07T13:18:09.868Z,1.75
2022-10-07T13:20:57.720Z,2.00
2022-10-07T13:23:27.527Z,2.22
2022-10-07T13:25:57.096Z,2.53
2022-10-07T13:28:26.776Z,1.63
2022-10-07T13:30:53.508Z,1.85
2022-10-07T13:33:29.658Z,2.10
2022-10-07T13:36:10.198Z,2.25
2022-10-07T13:38:36.762Z,1.98
2022-10-07T13:41:08.870Z,2.17
2022-10-07T13:43:37.498Z,2.42
2022-10-07T13:46:08.850Z,1.85
2022-10-07T13:48:45.226Z,2.00
2022-10-07T13:51:19.611Z,2.28
2022-10-07T13:53:53.535Z,2.20
2022-10-07T13:56:22.993Z,2.33
2022-10-07T13:58:53.969Z,2.17
2022-10-07T14:01:22.573Z,1.73
2022-10-07T14:04:10.797Z,1.77
2022-10-07T14:06:53.385Z,2.67
2022-10-07T14:09:23.721Z,2.33
2022-10-07T14:11:55.279Z,2.03
2022-10-07T14:14:24.587Z,2.03
2022-10-07T14:16:58.372Z,2.38
2022-10-07T14:19:31.649Z,1.80
2022-10-07T14:22:03.833Z,2.38
2022-10-07T14:24:31.192Z,2.00
2022-10-07T14:26:57.763Z,1.65
2022-10-07T14:29:46.394Z,2.15
2022-10-07T14:32:37.403Z,2.05
2022-10-07T14:35:18.948Z,1.95
2022-10-07T14:37:45.632Z,1.90
2022-10-07T14:40:22.823Z,2.05
2022-10-07T14:42:52.422Z,2.10
2022-10-07T14:45:21.333Z,2.22
2022-10-07T14:47:48.948Z,1.92
2022-10-07T14:50:18.031Z,1.50
2022-10-07T14:52:48.700Z,1.90
2022-10-07T14:55:18.686Z,1.90
2022-10-07T14:57:47.400Z,2.63
2022-10-07T15:00:16.895Z,2.10
2022-10-07T15:02:44.070Z,2.27
2022-10-07T15:05:14.530Z,1.97
2022-10-07T15:07:43.539Z,1.67
2022-10-07T15:10:16.492Z,1.90
2022-10-07T15:12:44.006Z,2.20
2022-10-07T15:15:11.863Z,2.37
2022-10-07T15:17:40.018Z,2.13
2022-10-07T15:20:12.399Z,2.53
2022-10-07T15:26:27.848Z,1.93
2022-10-07T15:28:55.874Z,2.27
2022-10-07T15:31:23.905Z,2.27
2022-10-07T15:33:51.092Z,2.27
2022-10-07T15:36:17.797Z,2.30
2022-10-07T15:38:44.364Z,2.60
2022-10-07T15:41:29.376Z,2.30
2022-10-07T15:43:56.890Z,2.20
2022-10-07T15:46:24.109Z,2.90
2022-10-07T15:48:56.357Z,2.03
2022-10-07T15:51:23.864Z,1.90
2022-10-07T15:53:50.601Z,1.87
2022-10-07T15:56:17.217Z,2.40
2022-10-07T15:58:45.182Z,2.77
2022-10-07T16:01:11.837Z,3.50
2022-10-07T16:03:40.190Z,4.10
2022-10-07T16:06:08.972Z,4.27
2022-10-07T16:08:36.105Z,4.73
2022-10-07T16:11:04.805Z,3.70
2022-10-07T16:13:34.336Z,4.30
2022-10-07T16:16:03.283Z,3.30
2022-10-07T16:18:35.703Z,3.03
2022-10-07T16:21:05.718Z,3.50
2022-10-07T16:23:33.524Z,3.77
2022-10-07T16:26:03.981Z,3.70
2022-10-07T16:28:49.209Z,4.43
2022-10-07T16:31:16.677Z,3.87
2022-10-07T16:33:43.773Z,4.30
2022-10-07T16:36:12.664Z,4.33
2022-10-07T16:38:40.134Z,5.53
2022-10-07T16:41:06.959Z,7.20
2022-10-07T16:43:33.788Z,6.40
2022-10-07T16:46:02.312Z,6.33
2022-10-07T16:48:30.077Z,6.60
2022-10-07T16:50:57.459Z,8.63
2022-10-07T16:53:24.197Z,7.90
2022-10-07T16:55:50.822Z,9.47
2022-10-07T16:58:17.503Z,7.27
2022-10-07T17:00:44.285Z,7.70
2022-10-07T17:03:10.870Z,8.07
2022-10-07T17:05:38.525Z,6.73
2022-10-07T17:08:05.809Z,6.33
2022-10-07T17:10:32.514Z,6.57
2022-10-07T17:12:59.180Z,6.40
2022-10-07T17:15:29.045Z,5.30
2022-10-07T17:17:55.678Z,7.03
2022-10-07T17:20:22.799Z,7.73
2022-10-07T17:22:50.093Z,6.50
2022-10-07T17:25:17.047Z,6.80
2022-10-07T17:27:44.335Z,6.57
2022-10-07T17:30:15.514Z,6.90
2022-10-07T17:32:42.662Z,6.63
2022-10-07T17:35:09.525Z,5.90
2022-10-07T17:37:36.506Z,6.43
2022-10-07T17:40:04.357Z,5.63
2022-10-07T17:42:31.058Z,7.50
2022-10-07T17:44:57.752Z,6.67
2022-10-07T17:47:24.379Z,7.60
2022-10-07T17:49:53.436Z,7.63
2022-10-07T17:52:23.953Z,8.53
2022-10-07T17:54:55.756Z,7.17
2022-10-07T17:57:24.197Z,6.67
2022-10-07T17:59:52.191Z,6.43
2022-10-07T18:02:19.540Z,6.30
2022-10-07T18:04:46.399Z,8.50
2022-10-07T18:07:15.481Z,8.70
2022-10-07T18:09:42.440Z,15.93
2022-10-07T18:12:27.531Z,15.07
2022-10-07T18:15:13.880Z,12.57
2022-10-07T18:17:40.542Z,11.00
2022-10-07T18:20:11.469Z,9.57
2022-10-07T18:22:43.498Z,8.80
2022-10-07T18:25:11.373Z,8.13
2022-10-07T18:27:38.644Z,8.07
2022-10-07T18:30:08.064Z,8.00
2022-10-07T18:32:34.938Z,7.57
2022-10-07T18:35:02.318Z,8.40
2022-10-07T18:37:29.449Z,7.47
2022-10-07T18:39:56.175Z,7.67
2022-10-07T18:42:22.829Z,8.03
2022-10-07T18:44:51.573Z,7.53
2022-10-07T18:47:18.948Z,8.00
2022-10-07T18:49:45.525Z,8.17
2022-10-07T18:52:12.195Z,8.57
2022-10-07T18:54:38.776Z,8.43
2022-10-07T18:57:05.396Z,7.80
2022-10-07T18:59:32.015Z,7.53
2022-10-07T19:01:58.729Z,8.00
2022-10-07T19:04:26.251Z,7.40
2022-10-07T19:06:53.145Z,7.77
2022-10-07T19:09:21.707Z,7.47
2022-10-07T19:11:49.028Z,7.10
2022-10-07T19:14:16.092Z,7.50
2022-10-07T19:16:44.555Z,7.27
2022-10-07T19:19:13.249Z,7.47
2022-10-07T19:21:41.178Z,6.77
2022-10-07T19:24:07.891Z,7.60
2022-10-07T19:26:36.649Z,8.67
2022-10-07T19:29:04.842Z,8.53
2022-10-07T19:31:34.449Z,7.80
2022-10-07T19:34:02.834Z,8.17
2022-10-07T19:36:31.147Z,7.33
2022-10-07T19:39:01.866Z,7.63
2022-10-07T19:41:29.800Z,8.53
2022-10-07T19:43:57.118Z,7.43
2022-10-07T19:46:27.914Z,7.83
2022-10-07T19:48:56.178Z,8.90
2022-10-07T19:51:23.758Z,9.43
2022-10-07T19:53:50.663Z,10.00
2022-10-07T19:56:20.176Z,10.50
2022-10-07T19:58:49.912Z,10.07
2022-10-07T20:01:18.634Z,8.57
2022-10-07T20:03:45.555Z,8.53
2022-10-07T20:06:13.458Z,8.80
2022-10-07T20:08:42.656Z,9.17
2022-10-07T20:11:10.400Z,8.33
2022-10-07T20:13:38.898Z,9.70
2022-10-07T20:16:07.909Z,8.90
2022-10-07T20:18:36.011Z,9.90
2022-10-07T20:21:05.464Z,10.53
2022-10-07T20:23:33.121Z,11.40
2022-10-07T20:26:04.888Z,10.07
2022-10-07T20:28:31.899Z,10.37
2022-10-07T20:31:04.114Z,9.63
2022-10-07T20:33:35.755Z,9.00
2022-10-07T20:36:02.825Z,9.47
2022-10-07T20:38:29.541Z,8.80
2022-10-07T20:41:14.198Z,8.43
2022-10-07T20:43:41.034Z,8.17
2022-10-07T20:46:08.599Z,8.37
2022-10-07T20:48:35.250Z,8.17
2022-10-07T20:51:07.480Z,8.13
2022-10-07T20:53:34.621Z,8.33
2022-10-07T20:56:03.535Z,7.97
2022-10-07T20:58:31.039Z,7.87
2022-10-07T21:00:57.929Z,7.47
2022-10-07T21:03:26.064Z,8.50
2022-10-07T21:05:56.086Z,7.23
2022-10-07T21:08:23.123Z,7.97
2022-10-07T21:10:49.770Z,7.83
2022-10-07T21:13:18.535Z,8.73
2022-10-07T21:15:45.224Z,8.93
2022-10-07T21:18:11.957Z,10.07
2022-10-07T21:20:54.182Z,9.20
2022-10-07T21:23:23.569Z,8.53
2022-10-07T21:25:51.074Z,10.13
2022-10-07T21:28:18.235Z,9.93
2022-10-07T21:30:54.690Z,9.97
2022-10-07T21:33:22.219Z,10.07
2022-10-07T21:35:49.595Z,8.87
2022-10-07T21:38:16.257Z,8.37
2022-10-07T21:40:42.999Z,9.40
2022-10-07T21:43:09.566Z,9.30
2022-10-07T21:45:37.389Z,9.57
2022-10-07T21:48:04.091Z,8.70
2022-10-07T21:50:30.657Z,10.53
2022-10-07T21:52:57.906Z,10.83
2022-10-07T21:55:24.553Z,9.87
2022-10-07T21:57:51.096Z,9.40
2022-10-07T22:00:17.871Z,9.77
2022-10-07T22:02:44.732Z,9.13
2022-10-07T22:05:13.594Z,9.10
2022-10-07T22:07:58.288Z,9.27
2022-10-07T22:10:25.656Z,9.43
2022-10-07T22:12:52.259Z,9.67
2022-10-07T22:15:19.397Z,9.77
2022-10-07T22:17:46.187Z,8.57
2022-10-07T22:20:12.812Z,9.10
2022-10-07T22:22:40.396Z,9.63
2022-10-07T22:25:07.655Z,10.20
2022-10-07T22:27:35.013Z,9.17
2022-10-07T22:30:01.966Z,9.67
2022-10-07T22:32:28.495Z,9.30
2022-10-07T22:35:13.306Z,9.50
2022-10-07T22:37:40.388Z,9.07
2022-10-07T22:40:08.175Z,10.00
2022-10-07T22:42:35.445Z,9.67
2022-10-07T22:45:02.097Z,9.83
2022-10-07T22:47:28.696Z,9.23
2022-10-07T22:49:55.294Z,10.07
2022-10-07T22:52:21.931Z,10.33
2022-10-07T22:54:48.501Z,9.33
2022-10-07T22:57:15.888Z,9.60
2022-10-07T22:59:43.095Z,9.57
2022-10-07T23:02:09.885Z,9.50
2022-10-07T23:04:36.600Z,9.13
2022-10-07T23:07:03.161Z,10.37
2022-10-07T23:09:29.688Z,9.13
2022-10-07T23:11:56.286Z,9.50
2022-10-07T23:14:22.941Z,9.90
2022-10-07T23:16:50.229Z,8.83
2022-10-07T23:19:16.798Z,10.00
2022-10-07T23:21:43.916Z,10.70
2022-10-07T23:24:10.721Z,10.07
2022-10-07T23:26:37.611Z,10.13
2022-10-07T23:29:04.387Z,11.23
2022-10-07T23:31:32.540Z,10.80
2022-10-07T23:34:01.192Z,11.37
2022-10-07T23:36:27.738Z,9.30
2022-10-07T23:38:54.565Z,9.70
2022-10-07T23:41:23.532Z,9.50
2022-10-07T23:43:50.629Z,9.37
2022-10-07T23:46:18.724Z,9.77
2022-10-07T23:48:46.350Z,8.67
2022-10-07T23:51:16.018Z,10.37
2022-10-07T23:53:42.763Z,9.40
2022-10-07T23:56:09.463Z,10.00
2022-10-07T23:58:36.562Z,10.20
